Time;durP1;ratioP1;P1;durP2;ratioP2;P2;SDS_P1;SDS_P2;PMS_P1;PMS_P2;Temp;Humidity;BMP_temperature;BMP_pressure;BME280_temperature;BME280_humidity;BME280_pressure;Samples;Min_cycle;Max_cycle;Signal;HPM_P1;HPM_P2
2023/08/22 00:00:46;;;;;;;16.52;9.13;;;29.70;84.80;;;;;;7402724;19;19922;-74
2023/08/22 00:03:12;;;;;;;;;;;29.70;85.40;;;;;;7403051;19;19921;-74
2023/08/22 00:05:38;;;;;;;13.82;7.70;;;29.70;85.00;;;;;;7401413;19;19919;-73
2023/08/22 00:08:05;;;;;;;13.77;9.38;;;29.70;85.20;;;;;;7397058;19;19922;-74
2023/08/22 00:10:31;;;;;;;13.75;9.15;;;29.70;85.60;;;;;;7367992;19;19930;-73
2023/08/22 00:12:57;;;;;;;14.45;9.48;;;29.60;86.00;;;;;;7403193;19;19970;-74
2023/08/22 00:15:23;;;;;;;15.05;10.23;;;29.60;86.30;;;;;;7397430;19;19935;-74
2023/08/22 00:17:50;;;;;;;;;;;29.60;86.40;;;;;;7403182;19;19922;-73
2023/08/22 00:20:17;;;;;;;12.85;9.93;;;29.60;86.60;;;;;;7399072;19;19907;-74
2023/08/22 00:22:43;;;;;;;13.98;8.20;;;29.60;86.70;;;;;;7400525;19;20010;-74
2023/08/22 00:25:11;;;;;;;12.15;9.93;;;29.60;86.90;;;;;;7400886;19;19990;-75
2023/08/22 00:27:37;;;;;;;16.58;10.52;;;29.60;87.10;;;;;;7401289;19;19922;-74
2023/08/22 00:30:04;;;;;;;14.68;9.02;;;29.60;87.10;;;;;;7398596;19;19919;-74
2023/08/22 00:32:31;;;;;;;14.20;9.25;;;29.50;87.10;;;;;;7399711;19;19919;-73
2023/08/22 00:34:57;;;;;;;12.50;8.40;;;29.50;87.50;;;;;;7400888;19;20503;-74
2023/08/22 00:37:23;;;;;;;13.73;8.40;;;29.50;87.70;;;;;;7397570;19;19934;-74
2023/08/22 00:39:49;;;;;;;15.02;8.88;;;29.40;87.80;;;;;;7401186;19;19918;-74
2023/08/22 00:42:15;;;;;;;17.63;10.45;;;29.50;87.90;;;;;;7398252;19;19940;-74
2023/08/22 00:44:41;;;;;;;12.85;10.00;;;29.50;87.80;;;;;;7398276;19;19951;-74
2023/08/22 00:47:06;;;;;;;16.73;9.70;;;29.50;87.90;;;;;;7397896;19;19917;-74
2023/08/22 00:49:33;;;;;;;13.40;10.20;;;29.40;88.00;;;;;;7400720;19;19914;-74
2023/08/22 00:52:01;;;;;;;13.02;10.05;;;29.40;88.10;;;;;;7398433;19;20408;-75
2023/08/22 00:54:30;;;;;;;15.82;10.48;;;29.40;88.40;;;;;;7399110;19;19910;-74
2023/08/22 00:56:57;;;;;;;14.95;8.55;;;29.40;88.50;;;;;;7398725;19;19957;-74
2023/08/22 00:59:26;;;;;;;16.80;9.32;;;29.30;88.70;;;;;;7400217;19;19948;-77
2023/08/22 01:01:53;;;;;;;14.45;9.20;;;29.40;89.20;;;;;;7400553;19;20442;-74
2023/08/22 01:04:19;;;;;;;;;;;29.30;89.20;;;;;;7401491;19;19926;-74
2023/08/22 01:07:05;;;;;;;16.65;9.45;;;29.30;89.70;;;;;;7398998;19;20324;-73
2023/08/22 01:09:43;;;;;;;15.35;8.65;;;29.30;89.90;;;;;;7399387;19;19918;-74
2023/08/22 01:12:27;;;;;;;13.52;8.25;;;29.20;90.20;;;;;;7396227;19;20335;-75
2023/08/22 01:15:19;;;;;;;14.68;9.27;;;29.20;90.20;;;;;;7368814;19;19922;-74
2023/08/22 01:17:46;;;;;;;17.10;10.10;;;29.20;90.40;;;;;;7397894;19;19911;-75
2023/08/22 01:20:12;;;;;;;14.00;8.93;;;29.10;90.50;;;;;;7399755;19;20261;-74
2023/08/22 01:22:41;;;;;;;17.05;8.65;;;29.20;90.60;;;;;;7404323;19;19923;-73
2023/08/22 01:25:08;;;;;;;15.82;7.90;;;29.10;90.60;;;;;;7403682;19;19918;-75
2023/08/22 01:28:04;;;;;;;15.02;9.52;;;29.10;90.60;;;;;;7404723;19;19921;-75
2023/08/22 01:30:37;;;;;;;15.10;9.25;;;29.10;90.60;;;;;;7402724;19;19919;-74
2023/08/22 01:33:12;;;;;;;14.30;8.35;;;29.10;90.70;;;;;;7402862;19;20564;-75
2023/08/22 01:35:40;;;;;;;20.17;10.00;;;29.10;90.80;;;;;;7404452;19;19955;-75
2023/08/22 01:38:08;;;;;;;12.73;8.13;;;29.10;91.00;;;;;;7405679;19;19915;-76
2023/08/22 01:40:34;;;;;;;16.40;9.85;;;29.00;91.00;;;;;;7404559;19;20487;-74
2023/08/22 01:43:00;;;;;;;15.05;8.73;;;29.00;91.10;;;;;;7405528;19;20329;-75
2023/08/22 01:45:26;;;;;;;11.90;7.90;;;29.00;91.10;;;;;;7401756;19;19918;-74
2023/08/22 01:47:52;;;;;;;13.80;8.13;;;29.00;91.20;;;;;;7402304;19;19919;-75
2023/08/22 01:50:18;;;;;;;13.48;10.02;;;29.00;91.30;;;;;;7400519;19;19913;-74
2023/08/22 01:52:43;;;;;;;12.60;9.43;;;28.90;91.30;;;;;;7404232;19;20009;-74
2023/08/22 01:55:11;;;;;;;13.00;8.85;;;28.90;91.20;;;;;;7400250;19;19949;-74
2023/08/22 01:57:37;;;;;;;12.50;9.77;;;28.90;91.30;;;;;;7405183;19;19947;-74
2023/08/22 02:00:03;;;;;;;13.05;8.05;;;28.90;91.50;;;;;;7400865;19;19922;-73
2023/08/22 02:02:29;;;;;;;12.68;8.10;;;28.80;91.60;;;;;;7396055;19;20329;-74
2023/08/22 02:04:55;;;;;;;12.48;7.93;;;28.80;92.00;;;;;;7403219;19;19919;-75
2023/08/22 02:07:21;;;;;;;11.43;7.65;;;28.90;91.80;;;;;;7401098;19;19923;-75
2023/08/22 02:09:46;;;;;;;11.95;7.95;;;28.80;91.80;;;;;;7403887;19;19926;-73
2023/08/22 02:12:12;;;;;;;14.18;7.95;;;28.80;91.80;;;;;;7403483;19;19915;-75
2023/08/22 02:14:38;;;;;;;12.38;9.25;;;28.80;91.80;;;;;;7405015;19;19930;-75
2023/08/22 02:17:04;;;;;;;15.65;8.77;;;28.80;91.90;;;;;;7403757;19;19923;-75
2023/08/22 02:19:29;;;;;;;15.93;9.63;;;28.70;91.80;;;;;;7402873;19;19915;-75
2023/08/22 02:21:55;;;;;;;12.75;8.55;;;28.70;91.90;;;;;;7403812;19;19949;-74
2023/08/22 02:24:21;;;;;;;13.15;7.80;;;28.70;91.80;;;;;;7402067;19;19962;-75
2023/08/22 02:26:47;;;;;;;12.48;8.77;;;28.70;91.70;;;;;;7403497;19;20533;-74
2023/08/22 02:29:12;;;;;;;16.20;9.43;;;28.60;91.60;;;;;;7402526;19;20829;-75
2023/08/22 02:31:38;;;;;;;14.02;9.20;;;28.60;91.60;;;;;;7403927;19;19922;-75
2023/08/22 02:34:04;;;;;;;15.20;9.43;;;28.60;91.50;;;;;;7402637;19;19914;-74
2023/08/22 02:36:30;;;;;;;13.43;8.98;;;28.60;91.70;;;;;;7402978;19;19931;-75
2023/08/22 02:38:56;;;;;;;10.85;7.53;;;28.50;92.10;;;;;;7403536;19;20311;-74
2023/08/22 02:41:21;;;;;;;16.20;9.80;;;28.50;91.90;;;;;;7400747;19;19930;-74
2023/08/22 02:43:47;;;;;;;12.93;8.35;;;28.50;92.10;;;;;;7403539;19;20328;-74
2023/08/22 02:46:13;;;;;;;12.48;8.32;;;28.50;92.00;;;;;;7402463;19;19932;-74
2023/08/22 02:48:39;;;;;;;13.48;7.75;;;28.50;92.00;;;;;;7403130;19;19935;-74
2023/08/22 02:51:05;;;;;;;11.52;7.45;;;28.50;92.30;;;;;;7402532;19;19978;-74
2023/08/22 02:53:30;;;;;;;14.23;8.73;;;28.50;92.50;;;;;;7403895;19;19919;-74
2023/08/22 02:55:59;;;;;;;14.02;9.23;;;28.50;92.90;;;;;;7403081;19;19924;-74
2023/08/22 02:58:25;;;;;;;12.68;8.00;;;28.50;92.40;;;;;;7401182;19;21243;-75
2023/08/22 03:00:51;;;;;;;13.00;7.25;;;28.40;92.70;;;;;;7403662;19;20341;-74
2023/08/22 03:03:18;;;;;;;15.32;7.20;;;28.30;92.80;;;;;;7391897;19;19922;-75
2023/08/22 03:05:44;;;;;;;13.20;7.80;;;28.40;92.80;;;;;;7402009;19;19926;-74
2023/08/22 03:08:10;;;;;;;12.40;9.38;;;28.40;92.70;;;;;;7402077;19;19915;-74
2023/08/22 03:10:36;;;;;;;14.32;7.65;;;28.30;92.90;;;;;;7401546;19;19911;-74
2023/08/22 03:13:01;;;;;;;14.00;8.30;;;28.40;92.90;;;;;;7404535;19;19932;-75
2023/08/22 03:15:27;;;;;;;17.45;7.70;;;28.40;92.90;;;;;;7403011;19;19907;-74
2023/08/22 03:17:53;;;;;;;12.98;8.20;;;28.40;93.00;;;;;;7403306;19;19925;-74
2023/08/22 03:20:18;;;;;;;14.95;7.95;;;28.40;93.10;;;;;;7401446;19;19927;-74
2023/08/22 03:22:44;;;;;;;12.40;7.70;;;28.40;93.10;;;;;;7403009;19;19923;-75
2023/08/22 03:25:10;;;;;;;10.88;7.55;;;28.40;93.00;;;;;;7399040;19;19922;-75
2023/08/22 03:27:37;;;;;;;11.90;7.18;;;28.40;93.00;;;;;;7401024;19;19929;-75
2023/08/22 03:30:04;;;;;;;13.40;7.68;;;28.40;93.10;;;;;;7400923;19;20363;-74
2023/08/22 03:32:30;;;;;;;12.20;7.63;;;28.30;93.00;;;;;;7404785;19;20365;-74
2023/08/22 03:34:56;;;;;;;13.52;7.47;;;28.30;92.90;;;;;;7403132;19;19974;-74
2023/08/22 03:37:22;;;;;;;15.93;7.85;;;28.30;93.00;;;;;;7401091;19;20291;-75
2023/08/22 03:39:48;;;;;;;15.18;8.05;;;28.30;92.80;;;;;;7403887;19;19978;-74
2023/08/22 03:42:17;;;;;;;13.32;7.53;;;28.30;92.60;;;;;;7399109;19;19915;-74
2023/08/22 03:44:42;;;;;;;15.05;8.27;;;28.20;92.30;;;;;;7401424;19;19914;-74
2023/08/22 03:47:08;;;;;;;10.98;7.03;;;28.20;91.90;;;;;;7398817;19;19926;-74
2023/08/22 03:49:34;;;;;;;13.02;7.88;;;28.20;91.60;;;;;;7402858;19;20029;-74
2023/08/22 03:52:00;;;;;;;10.57;7.78;;;28.20;91.50;;;;;;7402904;19;20255;-73
2023/08/22 03:54:25;;;;;;;13.70;7.45;;;28.20;91.60;;;;;;7400041;19;19918;-74
2023/08/22 03:56:51;;;;;;;12.48;7.72;;;28.20;91.80;;;;;;7399957;19;19919;-74
2023/08/22 03:59:17;;;;;;;17.27;8.63;;;28.20;91.90;;;;;;7401261;19;19922;-74
2023/08/22 04:01:43;;;;;;;13.57;7.97;;;28.20;91.90;;;;;;7400925;19;20343;-74
2023/08/22 04:04:09;;;;;;;13.52;7.70;;;28.10;91.60;;;;;;7365455;19;19918;-74
2023/08/22 04:06:34;;;;;;;12.70;7.20;;;28.10;91.60;;;;;;7402578;19;19911;-74
2023/08/22 04:09:00;;;;;;;13.82;7.70;;;28.10;91.60;;;;;;7402748;19;19911;-75
2023/08/22 04:11:26;;;;;;;10.07;6.72;;;28.10;91.40;;;;;;7400737;19;19919;-74
2023/08/22 04:13:52;;;;;;;12.25;8.00;;;28.10;91.10;;;;;;7402003;19;20536;-74
2023/08/22 04:16:19;;;;;;;12.65;7.35;;;28.10;90.50;;;;;;7401695;19;19915;-74
2023/08/22 04:18:45;;;;;;;10.38;6.85;;;28.10;90.40;;;;;;7398510;19;19990;-73
2023/08/22 04:21:11;;;;;;;12.02;6.20;;;28.10;90.10;;;;;;7401980;19;20244;-75
2023/08/22 04:23:37;;;;;;;11.57;7.43;;;28.10;87.70;;;;;;7399987;19;19923;-74
2023/08/22 04:26:03;;;;;;;15.43;7.78;;;28.10;87.90;;;;;;7398899;19;19918;-75
2023/08/22 04:28:29;;;;;;;11.10;5.97;;;28.10;87.90;;;;;;7401500;19;19918;-74
2023/08/22 04:30:59;;;;;;;12.18;6.72;;;28.10;86.90;;;;;;7402948;19;20122;-74
2023/08/22 04:33:25;;;;;;;9.98;7.57;;;28.10;84.20;;;;;;7401571;19;19922;-74
2023/08/22 04:35:51;;;;;;;13.63;6.30;;;28.10;83.90;;;;;;7403166;19;19915;-74
2023/08/22 04:38:16;;;;;;;10.20;6.05;;;28.10;84.90;;;;;;7368952;19;19935;-74
2023/08/22 04:40:43;;;;;;;11.60;5.90;;;28.10;86.00;;;;;;7399147;19;19924;-74
2023/08/22 04:43:08;;;;;;;12.38;6.20;;;28.10;86.20;;;;;;7399762;19;20370;-74
2023/08/22 04:45:35;;;;;;;13.95;6.38;;;28.10;86.50;;;;;;7401368;19;19919;-74
2023/08/22 04:48:01;;;;;;;12.50;7.07;;;28.10;87.30;;;;;;7402780;19;19919;-74
2023/08/22 04:50:28;;;;;;;;;;;28.10;88.70;;;;;;7403277;19;19917;-75
2023/08/22 04:52:54;;;;;;;13.85;7.10;;;28.00;89.30;;;;;;7400930;19;19918;-74
2023/08/22 04:55:20;;;;;;;13.63;7.30;;;28.10;89.70;;;;;;7400260;19;19922;-74
2023/08/22 04:57:46;;;;;;;13.60;6.78;;;28.00;89.80;;;;;;7401278;19;19987;-74
2023/08/22 05:00:13;;;;;;;14.80;6.70;;;28.00;89.70;;;;;;7400983;19;19906;-74
2023/08/22 05:02:39;;;;;;;12.77;9.70;;;28.00;89.80;;;;;;7403377;19;19991;-74
2023/08/22 05:05:09;;;;;;;12.65;7.65;;;28.00;91.40;;;;;;7398652;19;19919;-73
2023/08/22 05:07:36;;;;;;;13.35;7.80;;;28.00;92.30;;;;;;7401411;19;19982;-74
2023/08/22 05:10:03;;;;;;;17.10;8.05;;;28.00;92.20;;;;;;7398811;19;19911;-74
2023/08/22 05:12:29;;;;;;;15.70;9.93;;;28.00;92.70;;;;;;7400704;19;20262;-74
2023/08/22 05:14:57;;;;;;;15.55;11.30;;;28.00;95.60;;;;;;7400901;19;19915;-73
2023/08/22 05:17:22;;;;;;;16.80;10.07;;;27.80;96.80;;;;;;7399020;19;19934;-74
2023/08/22 05:19:48;;;;;;;19.10;12.15;;;27.80;97.60;;;;;;7398606;19;19922;-75
2023/08/22 05:22:14;;;;;;;17.67;11.52;;;27.70;98.70;;;;;;7397243;19;19919;-74
2023/08/22 05:24:40;;;;;;;15.93;10.43;;;27.70;99.00;;;;;;7398041;19;20349;-75
2023/08/22 05:27:05;;;;;;;17.73;10.27;;;27.70;98.40;;;;;;7400357;19;19981;-75
2023/08/22 05:29:31;;;;;;;14.70;9.57;;;27.70;98.30;;;;;;7400392;19;19915;-75
2023/08/22 05:31:57;;;;;;;16.30;9.68;;;27.80;98.30;;;;;;7397595;19;20492;-75
2023/08/22 05:34:23;;;;;;;14.30;9.32;;;27.70;98.00;;;;;;7399232;19;19938;-74
2023/08/22 05:36:49;;;;;;;15.82;9.63;;;27.80;97.60;;;;;;7399711;19;19948;-74
2023/08/22 05:39:14;;;;;;;16.63;10.55;;;27.80;97.50;;;;;;7396896;19;20358;-74
2023/08/22 05:41:40;;;;;;;13.95;8.63;;;27.80;96.90;;;;;;7400917;19;20323;-73
2023/08/22 05:44:06;;;;;;;16.17;8.77;;;27.90;96.60;;;;;;7398940;19;19941;-74
2023/08/22 05:46:33;;;;;;;18.60;9.57;;;28.00;96.30;;;;;;7400061;19;19918;-74
2023/08/22 05:48:59;;;;;;;17.60;10.00;;;28.00;95.80;;;;;;7397961;19;19951;-74
2023/08/22 05:51:24;;;;;;;14.68;9.52;;;28.00;95.50;;;;;;7397381;19;19923;-75
2023/08/22 05:53:50;;;;;;;20.83;11.15;;;28.10;95.50;;;;;;7400204;19;19922;-75
2023/08/22 05:56:16;;;;;;;13.35;10.00;;;28.10;95.20;;;;;;7395436;19;19919;-74
2023/08/22 05:58:42;;;;;;;14.40;10.63;;;28.20;94.70;;;;;;7369447;19;19926;-74
2023/08/22 06:01:13;;;;;;;12.57;9.30;;;28.20;94.40;;;;;;7399117;19;19950;-74
2023/08/22 06:03:39;;;;;;;13.75;10.07;;;28.30;93.60;;;;;;7398430;19;20994;-74
2023/08/22 06:06:05;;;;;;;16.52;9.55;;;28.40;93.30;;;;;;7402041;19;19967;-74
2023/08/22 06:08:31;;;;;;;13.35;8.27;;;28.40;92.80;;;;;;7407069;19;19922;-74
2023/08/22 06:10:57;;;;;;;;;;;28.50;92.00;;;;;;7406161;19;19978;-74
2023/08/22 06:13:23;;;;;;;13.30;8.60;;;28.50;91.50;;;;;;7403048;19;19943;-75
2023/08/22 06:15:49;;;;;;;14.70;9.02;;;28.60;91.10;;;;;;7406953;19;19978;-78
2023/08/22 06:18:15;;;;;;;14.88;9.95;;;28.70;90.80;;;;;;7374001;19;19935;-75
2023/08/22 06:20:41;;;;;;;16.67;9.23;;;28.70;90.60;;;;;;7405016;19;19933;-76
2023/08/22 06:23:07;;;;;;;15.77;8.50;;;28.70;90.50;;;;;;7404430;19;19914;-75
2023/08/22 06:25:33;;;;;;;15.43;8.70;;;28.80;90.30;;;;;;7408045;19;20432;-74
2023/08/22 06:27:59;;;;;;;;;;;28.80;90.20;;;;;;7406102;19;19914;-75
2023/08/22 06:30:25;;;;;;;15.32;9.98;;;28.90;90.00;;;;;;7402645;19;19923;-76
2023/08/22 06:32:51;;;;;;;13.73;8.48;;;28.90;90.40;;;;;;7408054;19;19930;-76
2023/08/22 06:35:17;;;;;;;16.77;9.38;;;28.90;90.90;;;;;;7403566;19;19994;-76
2023/08/22 06:37:43;;;;;;;15.88;9.23;;;28.90;91.40;;;;;;7406243;19;19919;-75
2023/08/22 06:40:09;;;;;;;14.75;9.93;;;28.90;91.70;;;;;;7402552;19;19930;-75
2023/08/22 06:42:34;;;;;;;;;;;29.00;92.30;;;;;;7408570;19;19926;-75
2023/08/22 06:45:00;;;;;;;19.35;11.63;;;29.00;92.60;;;;;;7406751;19;19923;-75
2023/08/22 06:47:26;;;;;;;14.82;10.00;;;29.10;93.30;;;;;;7404261;19;20837;-74
2023/08/22 06:49:52;;;;;;;29.77;13.50;;;29.10;93.70;;;;;;7404736;19;19907;-74
2023/08/22 06:52:19;;;;;;;19.65;12.10;;;29.10;93.90;;;;;;7404382;19;19935;-75
2023/08/22 06:54:45;;;;;;;21.90;12.15;;;29.00;94.00;;;;;;7405061;19;19914;-75
2023/08/22 06:57:12;;;;;;;20.08;9.80;;;29.10;93.70;;;;;;7403271;19;19929;-74
2023/08/22 06:59:39;;;;;;;19.30;11.68;;;29.20;93.50;;;;;;7406096;19;19919;-75
2023/08/22 07:02:05;;;;;;;15.18;11.35;;;29.20;93.60;;;;;;7404629;19;20034;-75
2023/08/22 07:04:34;;;;;;;16.13;11.75;;;29.30;94.30;;;;;;7401251;19;19926;-75
2023/08/22 07:07:00;;;;;;;18.05;12.48;;;29.30;94.80;;;;;;7405236;19;19926;-76
2023/08/22 07:09:26;;;;;;;17.00;11.82;;;29.40;94.80;;;;;;7405747;19;19919;-75
2023/08/22 07:11:51;;;;;;;13.18;10.13;;;29.40;94.80;;;;;;7404215;19;19918;-75
2023/08/22 07:14:17;;;;;;;13.85;10.63;;;29.40;94.50;;;;;;7372512;19;19969;-75
2023/08/22 07:16:43;;;;;;;17.90;9.70;;;29.50;94.10;;;;;;7403731;19;20562;-74
2023/08/22 07:19:09;;;;;;;14.60;8.82;;;29.50;94.00;;;;;;7404313;19;19918;-75
2023/08/22 07:21:35;;;;;;;21.33;10.60;;;29.60;93.80;;;;;;7405798;19;19915;-74
2023/08/22 07:24:01;;;;;;;21.92;10.55;;;29.60;93.40;;;;;;7404049;19;19914;-74
2023/08/22 07:26:28;;;;;;;16.40;10.40;;;29.70;93.20;;;;;;7401177;19;19915;-75
2023/08/22 07:28:54;;;;;;;16.58;8.82;;;29.80;92.40;;;;;;7403414;19;20460;-74
2023/08/22 07:31:20;;;;;;;17.40;11.25;;;29.90;91.80;;;;;;7401500;19;19918;-75
2023/08/22 07:33:46;;;;;;;16.45;9.35;;;30.00;92.30;;;;;;7405336;19;19918;-75
2023/08/22 07:36:20;;;;;;;14.68;9.75;;;30.10;92.80;;;;;;7402322;19;19918;-74
2023/08/22 07:38:46;;;;;;;15.60;9.65;;;30.20;94.00;;;;;;7395650;19;19932;-76
2023/08/22 07:41:11;;;;;;;;;;;30.20;93.60;;;;;;7403858;19;19914;-74
2023/08/22 07:43:37;;;;;;;18.35;11.10;;;30.20;93.60;;;;;;7405123;19;20041;-74
2023/08/22 07:46:03;;;;;;;19.70;11.88;;;30.20;93.50;;;;;;7401589;19;20339;-75
2023/08/22 07:48:31;;;;;;;17.55;10.10;;;30.40;93.30;;;;;;7404225;19;19929;-74
2023/08/22 07:50:56;;;;;;;17.02;11.40;;;30.40;93.10;;;;;;7399945;19;19919;-74
2023/08/22 07:53:22;;;;;;;21.55;12.55;;;30.30;92.60;;;;;;7400721;19;19939;-75
2023/08/22 07:55:48;;;;;;;16.50;10.80;;;30.30;92.40;;;;;;7399603;19;19923;-74
2023/08/22 07:58:15;;;;;;;17.45;10.98;;;30.40;92.20;;;;;;7401854;19;19978;-75
2023/08/22 08:00:47;;;;;;;16.20;11.70;;;30.50;92.10;;;;;;7404719;19;19919;-75
2023/08/22 08:03:13;;;;;;;;;;;30.60;91.90;;;;;;7403713;19;19929;-74
2023/08/22 08:05:38;;;;;;;19.02;14.43;;;30.70;91.70;;;;;;7402078;19;19918;-74
2023/08/22 08:08:04;;;;;;;20.20;12.48;;;30.70;91.40;;;;;;7400902;19;19914;-74
2023/08/22 08:10:30;;;;;;;19.15;11.02;;;30.70;91.40;;;;;;7388317;19;19910;-74
2023/08/22 08:12:56;;;;;;;16.63;10.30;;;30.80;91.10;;;;;;7383360;19;19906;-75
2023/08/22 08:15:22;;;;;;;14.23;10.57;;;30.80;90.80;;;;;;7383195;19;19955;-75
2023/08/22 08:17:48;;;;;;;19.70;11.82;;;31.00;90.60;;;;;;7396530;19;19922;-73
2023/08/22 08:20:14;;;;;;;16.20;11.25;;;31.10;90.10;;;;;;7396988;19;19918;-74
2023/08/22 08:22:40;;;;;;;16.42;9.38;;;31.20;89.20;;;;;;7398183;19;19918;-75
2023/08/22 08:25:06;;;;;;;22.50;12.07;;;31.30;88.20;;;;;;7382295;19;19914;-74
2023/08/22 08:27:32;;;;;;;;;;;31.30;87.70;;;;;;7404228;19;19925;-74
2023/08/22 08:29:58;;;;;;;16.23;11.38;;;31.40;87.90;;;;;;7395912;19;20330;-75
2023/08/22 08:32:25;;;;;;;19.48;10.90;;;31.50;87.20;;;;;;7390912;19;19926;-74
2023/08/22 08:34:50;;;;;;;16.05;10.52;;;31.60;86.40;;;;;;7393432;19;20002;-74
2023/08/22 08:37:16;;;;;;;16.05;11.05;;;31.80;85.10;;;;;;7396321;19;20568;-75
2023/08/22 08:39:42;;;;;;;;;;;31.90;85.20;;;;;;7391476;19;19921;-75
2023/08/22 08:42:14;;;;;;;16.77;10.98;;;32.00;84.40;;;;;;7377391;19;19922;-75
2023/08/22 08:44:41;;;;;;;18.98;11.05;;;32.00;84.00;;;;;;7386230;19;19911;-75
2023/08/22 08:47:09;;;;;;;20.90;11.57;;;32.10;84.00;;;;;;7397663;19;19918;-75
2023/08/22 08:49:36;;;;;;;20.05;11.90;;;32.10;83.80;;;;;;7399237;19;19915;-76
2023/08/22 08:52:06;;;;;;;21.33;10.52;;;32.30;82.60;;;;;;7390666;19;19929;-75
2023/08/22 08:54:32;;;;;;;17.65;11.20;;;32.50;81.60;;;;;;7386085;19;19915;-74
2023/08/22 08:56:59;;;;;;;14.10;9.65;;;32.40;80.70;;;;;;7383707;19;19921;-74
2023/08/22 08:59:26;;;;;;;19.58;10.80;;;32.50;79.80;;;;;;7394567;19;19911;-73
2023/08/22 09:01:52;;;;;;;18.38;10.48;;;32.60;78.20;;;;;;7379764;19;20016;-73
2023/08/22 09:04:21;;;;;;;;;;;32.70;78.70;;;;;;7389970;19;20512;-74
2023/08/22 09:06:47;;;;;;;19.65;11.15;;;32.60;80.50;;;;;;7399743;19;20013;-75
2023/08/22 09:09:14;;;;;;;17.23;9.95;;;32.80;80.80;;;;;;7360454;19;19939;-74
2023/08/22 09:11:47;;;;;;;18.50;10.32;;;32.90;79.60;;;;;;7389692;19;19946;-74
2023/08/22 09:14:19;;;;;;;16.38;9.93;;;33.30;77.70;;;;;;7398077;19;19945;-74
2023/08/22 09:16:44;;;;;;;21.17;10.55;;;33.30;78.10;;;;;;7373482;19;19927;-75
2023/08/22 09:19:13;;;;;;;;;;;33.50;77.80;;;;;;7392729;19;20247;-75
2023/08/22 09:21:40;;;;;;;18.20;10.38;;;33.70;75.70;;;;;;7393114;19;20359;-74
2023/08/22 09:24:08;;;;;;;19.17;9.88;;;33.90;74.20;;;;;;7391378;19;19933;-74
2023/08/22 09:26:34;;;;;;;14.93;8.38;;;34.00;72.90;;;;;;7401040;19;20254;-74
2023/08/22 09:29:05;;;;;;;16.08;7.65;;;34.10;71.90;;;;;;7395534;19;20269;-74
2023/08/22 09:31:32;;;;;;;18.90;7.55;;;34.10;70.90;;;;;;7391792;19;20267;-75
2023/08/22 09:33:58;;;;;;;15.73;8.10;;;34.10;69.90;;;;;;7392184;19;19945;-74
2023/08/22 09:36:24;;;;;;;16.13;6.80;;;34.10;67.40;;;;;;7352066;19;20236;-74
2023/08/22 09:38:54;;;;;;;;;;;34.00;66.80;;;;;;7383003;19;19941;-73
2023/08/22 09:41:26;;;;;;;17.35;7.72;;;34.00;64.50;;;;;;7387200;19;19919;-73
2023/08/22 09:43:58;;;;;;;19.48;7.60;;;34.20;64.00;;;;;;7398738;19;19925;-73
2023/08/22 09:46:24;;;;;;;12.32;7.15;;;34.30;61.80;;;;;;7378633;19;19927;-73
2023/08/22 09:48:51;;;;;;;10.80;6.10;;;34.30;60.20;;;;;;7390097;19;19923;-73
2023/08/22 09:51:20;;;;;;;13.60;6.97;;;34.30;57.80;;;;;;7392027;19;19933;-74
2023/08/22 09:53:59;;;;;;;12.55;6.55;;;34.40;57.30;;;;;;7396166;19;20334;-73
2023/08/22 09:56:25;;;;;;;13.43;6.22;;;34.60;54.90;;;;;;7386518;19;19918;-74
2023/08/22 09:58:53;;;;;;;14.63;5.82;;;34.90;52.90;;;;;;7399852;19;20002;-74
2023/08/22 10:01:20;;;;;;;11.40;5.45;;;34.90;51.40;;;;;;7394703;19;19925;-72
2023/08/22 10:03:53;;;;;;;18.25;6.97;;;35.10;50.50;;;;;;7401245;19;19918;-73
2023/08/22 10:06:23;;;;;;;15.48;5.53;;;35.00;48.10;;;;;;7397294;19;19918;-75
2023/08/22 10:08:50;;;;;;;10.25;5.70;;;35.20;45.40;;;;;;7402271;19;19918;-74
2023/08/22 10:11:18;;;;;;;17.33;5.22;;;35.30;44.00;;;;;;7402010;19;19937;-74
2023/08/22 10:13:44;;;;;;;13.25;4.90;;;35.30;43.00;;;;;;7398120;19;19961;-74
2023/08/22 10:16:11;;;;;;;14.93;5.68;;;35.50;42.10;;;;;;7397448;19;19910;-74
2023/08/22 10:18:37;;;;;;;15.15;4.90;;;35.60;43.80;;;;;;7403094;19;20278;-74
2023/08/22 10:21:05;;;;;;;16.48;6.22;;;35.50;43.40;;;;;;7387424;19;20337;-74
2023/08/22 10:23:53;;;;;;;13.02;6.07;;;35.40;45.70;;;;;;7387921;19;19945;-74
2023/08/22 10:26:20;;;;;;;11.20;5.50;;;35.40;41.30;;;;;;7397384;19;19926;-74
2023/08/22 10:29:16;;;;;;;15.23;5.93;;;35.60;41.70;;;;;;7396825;19;19995;-74
2023/08/22 10:32:00;;;;;;;17.67;7.40;;;35.60;43.70;;;;;;7397886;19;19926;-74
2023/08/22 10:34:46;;;;;;;10.70;5.70;;;35.60;43.00;;;;;;7386787;19;19919;-75
2023/08/22 10:37:11;;;;;;;15.20;6.18;;;35.70;43.60;;;;;;7398929;19;19928;-73
2023/08/22 10:39:45;;;;;;;16.10;6.03;;;35.70;43.50;;;;;;7400880;19;19918;-75
2023/08/22 10:42:18;;;;;;;13.75;5.85;;;35.60;45.10;;;;;;7393306;19;20346;-75
2023/08/22 10:44:54;;;;;;;17.30;7.68;;;35.80;45.30;;;;;;7396022;19;19929;-74
2023/08/22 10:47:30;;;;;;;14.90;7.15;;;36.10;45.80;;;;;;7389444;19;19927;-74
2023/08/22 10:49:57;;;;;;;14.20;6.97;;;36.20;46.80;;;;;;7401535;19;19915;-74
2023/08/22 10:52:39;;;;;;;16.67;6.15;;;36.30;50.70;;;;;;7359693;19;20286;-75
2023/08/22 10:55:12;;;;;;;15.23;7.57;;;36.40;50.90;;;;;;7394252;19;19922;-74
2023/08/22 10:57:46;;;;;;;14.70;7.07;;;36.40;51.70;;;;;;7402492;19;19915;-74
2023/08/22 11:00:18;;;;;;;16.48;7.88;;;36.20;53.00;;;;;;7396199;19;19910;-74
2023/08/22 11:02:44;;;;;;;13.27;7.97;;;36.10;53.80;;;;;;7400124;19;19911;-74
2023/08/22 11:05:12;;;;;;;14.32;8.02;;;36.00;54.60;;;;;;7395103;19;19982;-74
2023/08/22 11:07:42;;;;;;;14.15;7.38;;;35.90;56.70;;;;;;7397026;19;19933;-74
2023/08/22 11:10:12;;;;;;;14.85;7.85;;;36.20;55.80;;;;;;7396226;19;19921;-74
2023/08/22 11:12:38;;;;;;;12.95;6.70;;;36.60;53.10;;;;;;7400268;19;19918;-74
2023/08/22 11:15:04;;;;;;;14.80;5.95;;;36.50;49.90;;;;;;7399421;19;19924;-74
2023/08/22 11:17:31;;;;;;;11.27;6.22;;;36.30;46.60;;;;;;7401051;19;19928;-74
2023/08/22 11:19:59;;;;;;;13.70;7.45;;;36.30;48.60;;;;;;7389328;19;19907;-73
2023/08/22 11:22:25;;;;;;;16.77;6.05;;;36.40;51.50;;;;;;7400219;19;19922;-74
2023/08/22 11:24:52;;;;;;;15.93;6.40;;;36.70;48.80;;;;;;7400418;19;20323;-74
2023/08/22 11:27:18;;;;;;;23.63;7.00;;;36.70;46.00;;;;;;7388925;19;19947;-75
2023/08/22 11:29:52;;;;;;;21.00;7.57;;;37.30;45.60;;;;;;7396648;19;19929;-73
2023/08/22 11:32:38;;;;;;;13.80;6.75;;;37.10;47.20;;;;;;7399614;19;19910;-74
2023/08/22 11:35:06;;;;;;;24.17;8.30;;;37.10;46.60;;;;;;7396339;19;19937;-73
2023/08/22 11:37:39;;;;;;;17.38;7.47;;;37.30;44.40;;;;;;7401672;19;19935;-73
2023/08/22 11:40:09;;;;;;;17.10;6.93;;;37.60;41.60;;;;;;7396084;19;19914;-73
2023/08/22 11:42:37;;;;;;;20.92;6.80;;;37.60;40.70;;;;;;7399828;19;19965;-74
2023/08/22 11:45:08;;;;;;;15.32;7.75;;;37.80;42.50;;;;;;7389756;19;19914;-75
2023/08/22 11:47:42;;;;;;;18.17;7.78;;;37.80;38.10;;;;;;7394443;19;19918;-73
2023/08/22 11:50:20;;;;;;;17.30;7.85;;;38.50;40.20;;;;;;7402536;19;20655;-74
2023/08/22 11:52:52;;;;;;;15.73;8.23;;;38.90;42.70;;;;;;7391965;19;19941;-73
2023/08/22 11:55:25;;;;;;;16.58;8.43;;;38.80;42.30;;;;;;7388879;19;19960;-73
2023/08/22 11:57:53;;;;;;;15.55;7.45;;;38.90;43.70;;;;;;7399009;19;19933;-74
2023/08/22 12:00:20;;;;;;;14.90;8.32;;;38.80;44.60;;;;;;7394161;19;19955;-74
2023/08/22 12:02:52;;;;;;;12.50;9.48;;;39.30;45.40;;;;;;7396263;19;19919;-74
2023/08/22 12:05:31;;;;;;;18.23;7.57;;;39.30;44.60;;;;;;7401690;19;19923;-74
2023/08/22 12:08:10;;;;;;;17.63;8.70;;;39.70;45.00;;;;;;7402574;19;19934;-74
2023/08/22 12:10:44;;;;;;;16.23;6.55;;;39.40;43.70;;;;;;7402018;19;19921;-74
2023/08/22 12:13:11;;;;;;;19.60;9.55;;;39.60;43.20;;;;;;7399145;19;19930;-74
2023/08/22 12:15:39;;;;;;;14.13;8.18;;;40.00;41.90;;;;;;7400452;19;20343;-75
2023/08/22 12:18:05;;;;;;;16.75;6.45;;;39.90;42.70;;;;;;7401336;19;19986;-74
2023/08/22 12:20:32;;;;;;;16.95;6.70;;;39.70;42.20;;;;;;7400346;19;19923;-75
2023/08/22 12:22:57;;;;;;;17.58;10.07;;;40.10;41.80;;;;;;7401175;19;20742;-74
2023/08/22 12:25:23;;;;;;;15.10;9.07;;;40.30;40.90;;;;;;7401004;19;19921;-74
2023/08/22 12:27:49;;;;;;;18.27;11.85;;;39.90;40.50;;;;;;7399714;19;20349;-75
2023/08/22 12:30:15;;;;;;;13.40;6.35;;;39.20;40.40;;;;;;7399183;19;20239;-74
2023/08/22 12:32:45;;;;;;;12.40;9.13;;;39.20;39.50;;;;;;7402021;19;20001;-74
2023/08/22 12:35:11;;;;;;;15.48;8.68;;;40.00;39.60;;;;;;7399469;19;19955;-74
2023/08/22 12:37:38;;;;;;;13.75;8.45;;;40.20;38.30;;;;;;7401540;19;19918;-74
2023/08/22 12:40:10;;;;;;;14.35;6.35;;;40.10;40.00;;;;;;7401013;19;19910;-74